Bookmark and Share
Track history (hours):
 

Emerald Coast

More information available from US FCC via Universal Licensing System and Coast Guard Vessel Documentation Center.

Last reported at 2014-Apr-20 20:34 UTC. Time now 2014-Apr-20 21:10 UTC.
Position N 40°40' W 074°00'.

; draft 3 m.

Type: Towing. MMSI: 367097920.

NotesDate/timePositionNaut miles runAvg speedWind from/ knotsBaromVisibWave heightAir tempDewpointWater temp
2014-Apr-20 20:34N 40°40' W 074°00'0 0.0
2014-Apr-20 19:34N 40°40' W 074°00'0 0.0
2014-Apr-20 18:33N 40°40' W 074°00'0 0.0
2014-Apr-20 17:33N 40°40' W 074°00'5 5.1
2014-Apr-20 16:33N 40°39' W 074°07'1 0.2
2014-Apr-20 13:30N 40°38' W 074°07'3 3.1
2014-Apr-20 12:34N 40°39' W 074°03'1 0.8
2014-Apr-20 11:33N 40°39' W 074°04'4 4.3
2014-Apr-20 10:32N 40°41' W 074°09'2 2.1
2014-Apr-20 09:33N 40°42' W 074°07'2 2.1
2014-Apr-20 08:33N 40°41' W 074°09'0 0.3
2014-Apr-20 07:33N 40°41' W 074°10'0 0.0
2014-Apr-20 06:34N 40°41' W 074°10'1 1.3
2014-Apr-20 05:33N 40°40' W 074°08'0 0.0
2014-Apr-20 04:34N 40°40' W 074°08'0 0.0
2014-Apr-20 03:33N 40°40' W 074°08'0 0.0
2014-Apr-20 02:33N 40°40' W 074°08'0 0.0
2014-Apr-20 01:34N 40°40' W 074°08'0 0.0
2014-Apr-20 00:33N 40°40' W 074°08'0 0.0
2014-Apr-19 23:34N 40°40' W 074°08'0 0.0
2014-Apr-19 22:34N 40°40' W 074°08'2 1.8
2014-Apr-19 21:34N 40°39' W 074°07'0 0.1
2014-Apr-19 20:23N 40°39' W 074°07'0 0.1
2014-Apr-19 19:22N 40°38' W 074°07'0 0.0
2014-Apr-19 18:32N 40°38' W 074°07'0 0.0
2014-Apr-19 17:32N 40°38' W 074°07'0 0.0
2014-Apr-19 14:11N 40°38' W 074°07'0 0.4
2014-Apr-19 13:33N 40°39' W 074°08'4 3.6
2014-Apr-19 12:32N 40°38' W 074°12'2 1.8
2014-Apr-19 11:33N 40°39' W 074°11'3 1.0
2014-Apr-19 09:04N 40°38' W 074°07'0 0.0
2014-Apr-19 08:32N 40°38' W 074°07'0 0.2
2014-Apr-19 06:33N 40°39' W 074°07'2 1.6
2014-Apr-19 05:34N 40°39' W 074°09'3 2.7
2014-Apr-19 04:33N 40°41' W 074°10'0 0.0
2014-Apr-19 03:33N 40°41' W 074°10'0 0.0
2014-Apr-19 02:34N 40°41' W 074°10'0 0.0
2014-Apr-19 01:33N 40°41' W 074°10'1 0.9
2014-Apr-19 00:33N 40°42' W 074°09'0 0.0
2014-Apr-18 23:33N 40°42' W 074°09'0 0.0
2014-Apr-18 22:33N 40°42' W 074°09'0 0.0
2014-Apr-18 21:33N 40°42' W 074°09'0 0.0
2014-Apr-18 20:33N 40°42' W 074°09'0 0.0
2014-Apr-18 19:33N 40°42' W 074°09'2 2.0
2014-Apr-18 18:33N 40°40' W 074°08'3 3.2
2014-Apr-18 17:34N 40°40' W 074°04'1 0.8
2014-Apr-18 16:34N 40°39' W 074°05'0 0.1
2014-Apr-18 11:34N 40°39' W 074°04'1 0.6
2014-Apr-18 10:33N 40°40' W 074°04'1 0.9
2014-Apr-18 09:33N 40°39' W 074°05'0 0.0
2014-Apr-18 08:34N 40°39' W 074°05'2 0.3
2014-Apr-18 03:24N 40°39' W 074°07'2 0.3
2014-Apr-17 21:33N 40°39' W 074°05'2 2.0
2014-Apr-17 20:33N 40°40' W 074°03'3 0.8
2014-Apr-17 16:33N 40°39' W 074°07'4 3.8
2014-Apr-17 15:33N 40°40' W 074°02'3 3.2
2014-Apr-17 14:33N 40°37' W 074°03'0 0.0
2014-Apr-17 13:33N 40°37' W 074°03'0 0.0
2014-Apr-17 12:34N 40°37' W 074°03'0 0.2
2014-Apr-17 11:34N 40°37' W 074°03'0 0.2
2014-Apr-17 10:33N 40°37' W 074°03'0 0.0
2014-Apr-17 09:33N 40°37' W 074°03'0 0.5
2014-Apr-17 08:33N 40°37' W 074°04'0 0.0
2014-Apr-17 07:34N 40°37' W 074°04'0 0.0
2014-Apr-17 06:33N 40°37' W 074°04'0 0.0
2014-Apr-17 05:34N 40°37' W 074°04'0 0.0
2014-Apr-17 04:34N 40°37' W 074°04'0 0.2
2014-Apr-17 03:33N 40°38' W 074°04'0 0.1
2014-Apr-17 02:33N 40°38' W 074°04'1 0.8
2014-Apr-17 01:33N 40°39' W 074°04'3 1.7
2014-Apr-17 00:07N 40°38' W 074°07'0 0.0
2014-Apr-16 22:31N 40°38' W 074°07'0 0.0
2014-Apr-16 21:29N 40°38' W 074°07'3 3.2
2014-Apr-16 20:34N 40°39' W 074°03'2 2.1
2014-Apr-16 19:33N 40°40' W 074°01'1 0.7
2014-Apr-16 18:34N 40°40' W 074°00'0 0.0
2014-Apr-16 17:34N 40°40' W 074°00'0 0.0
2014-Apr-16 16:33N 40°40' W 074°00'1 1.4
2014-Apr-16 15:34N 40°40' W 074°02'1 0.8
2014-Apr-16 14:33N 40°39' W 074°01'2 2.1
2014-Apr-16 13:33N 40°40' W 074°04'1 1.0
2014-Apr-16 12:34N 40°39' W 074°04'3 3.1
2014-Apr-16 11:34N 40°40' W 074°01'0 0.3
2014-Apr-16 10:33N 40°40' W 074°00'1 0.5
2014-Apr-16 09:33N 40°40' W 074°01'1 0.5
2014-Apr-16 08:34N 40°40' W 074°00'0 0.3
2014-Apr-16 07:33N 40°40' W 074°00'0 0.0
2014-Apr-16 06:33N 40°40' W 074°00'0 0.0
2014-Apr-16 05:33N 40°40' W 074°00'0 0.0
2014-Apr-16 04:34N 40°40' W 074°00'0 0.0
2014-Apr-16 03:33N 40°40' W 074°00'4 4.4
2014-Apr-16 02:33N 40°39' W 074°06'3 3.4
2014-Apr-16 01:34N 40°41' W 074°09'0 0.0
2014-Apr-16 00:33N 40°41' W 074°09'0 0.0
2014-Apr-15 22:27N 40°41' W 074°09'0 0.0
2014-Apr-15 21:34N 40°41' W 074°09'0 0.0
2014-Apr-15 19:26N 40°41' W 074°09'0 0.0
2014-Apr-15 18:32N 40°41' W 074°09'2 2.2
2014-Apr-15 17:33N 40°39' W 074°09'3 2.8
2014-Apr-15 16:33N 40°39' W 074°05'2 0.2
2014-Apr-15 06:34N 40°40' W 074°03'5 4.7
2014-Apr-15 05:34N 40°38' W 074°09'2 0.9
2014-Apr-15 03:34N 40°40' W 074°08'0 0.0
2014-Apr-15 02:34N 40°40' W 074°08'0 0.0
2014-Apr-15 01:34N 40°40' W 074°08'0 0.0
2014-Apr-15 00:34N 40°40' W 074°08'0 0.0
2014-Apr-14 23:34N 40°40' W 074°08'0 0.0
2014-Apr-14 22:34N 40°40' W 074°08'0 0.0
2014-Apr-14 21:33N 40°40' W 074°08'0 0.0
2014-Apr-14 20:34N 40°40' W 074°08'2 1.1
2014-Apr-14 18:33N 40°39' W 074°06'4 1.1
2014-Apr-14 14:34N 40°38' W 074°12'0 0.0
2014-Apr-14 13:34N 40°38' W 074°12'6 1.9
2014-Apr-14 10:33N 40°39' W 074°04'3 2.9
2014-Apr-14 09:33N 40°40' W 074°01'0 0.0
2014-Apr-14 08:33N 40°40' W 074°01'0 0.0
2014-Apr-14 07:33N 40°40' W 074°01'4 2.0
2014-Apr-14 05:33N 40°37' W 074°03'3 0.5
2014-Apr-13 22:33N 40°39' W 074°06'0 0.3
2014-Apr-13 21:33N 40°39' W 074°06'1 0.2
2014-Apr-13 16:16N 40°39' W 074°07'2 3.0
2014-Apr-13 15:33N 40°39' W 074°05'3 3.2
2014-Apr-13 14:33N 40°40' W 074°00'0 0.0
2014-Apr-13 13:33N 40°40' W 074°00'3 2.9
2014-Apr-13 12:33N 40°39' W 074°04'4 3.9
2014-Apr-13 11:33N 40°41' W 074°09'0 0.0
2014-Apr-13 10:33N 40°41' W 074°09'0 0.0
2014-Apr-13 09:30N 40°41' W 074°09'0 0.0
2014-Apr-13 08:33N 40°41' W 074°09'0 0.0
2014-Apr-13 07:33N 40°41' W 074°09'0 0.0
2014-Apr-13 06:25N 40°41' W 074°09'0 0.0
2014-Apr-13 05:33N 40°41' W 074°09'3 3.4
2014-Apr-13 04:33N 40°39' W 074°05'2 1.9
2014-Apr-13 03:33N 40°39' W 074°03'5 4.9
2014-Apr-13 02:33N 40°41' W 074°09'0 0.2
2014-Apr-13 01:33N 40°41' W 074°09'0 0.0
2014-Apr-13 00:33N 40°41' W 074°09'0 0.0
2014-Apr-12 23:33N 40°41' W 074°09'0 0.0
2014-Apr-12 22:33N 40°41' W 074°09'0 0.0
2014-Apr-12 21:33N 40°41' W 074°09'0 0.0
2014-Apr-12 20:33N 40°41' W 074°09'0 0.0
2014-Apr-12 19:33N 40°41' W 074°09'2 2.3
2014-Apr-12 18:33N 40°39' W 074°09'3 2.7
2014-Apr-12 17:33N 40°39' W 074°05'0 0.0
2014-Apr-12 16:33N 40°39' W 074°05'2 1.7
2014-Apr-12 15:33N 40°39' W 074°03'1 0.8
2014-Apr-12 14:33N 40°39' W 074°04'5 4.3
2014-Apr-12 13:30N 40°41' W 074°09'2 2.3
2014-Apr-12 12:33N 40°39' W 074°09'4 0.9
2014-Apr-12 08:33N 40°39' W 074°04'1 1.4
2014-Apr-12 07:33N 40°39' W 074°02'5 5.0
2014-Apr-12 06:33N 40°39' W 074°09'1 1.0
2014-Apr-12 05:33N 40°39' W 074°10'1 0.5
2014-Apr-12 03:05N 40°40' W 074°09'1 2.2
2014-Apr-12 02:33N 40°39' W 074°08'1 0.8
2014-Apr-12 01:23N 40°39' W 074°07'0 0.1
2014-Apr-11 23:33N 40°39' W 074°08'4 2.8
2014-Apr-11 22:13N 40°37' W 074°12'3 3.9
2014-Apr-11 21:33N 40°39' W 074°09'7 6.6
2014-Apr-11 20:33N 40°41' W 074°01'4 3.8
2014-Apr-11 19:33N 40°44' W 073°58'1 1.1
2014-Apr-11 18:33N 40°45' W 073°58'4 3.5
2014-Apr-11 17:33N 40°48' W 073°55'1 0.7
2014-Apr-11 16:28N 40°48' W 073°54'9 4.5
2014-Apr-11 14:26N 40°53' W 073°43'  

Dump ship's entire track history

sailing weather and tide predictions

Emerald Coast — WDC9127 — position and weather